sensor_id;sensor_type;location;lat;lon;timestamp;P1;durP1;ratioP1;P2;durP2;ratioP2
7969;SDS011;4030;52.362;9.206;2022-11-15T00:00:48;5.60;;;5.10;;
7969;SDS011;4030;52.362;9.206;2022-11-15T00:03:15;4.93;;;4.47;;
7969;SDS011;4030;52.362;9.206;2022-11-15T00:05:43;5.20;;;4.68;;
7969;SDS011;4030;52.362;9.206;2022-11-15T00:08:09;6.40;;;5.22;;
7969;SDS011;4030;52.362;9.206;2022-11-15T00:10:35;4.72;;;4.25;;
7969;SDS011;4030;52.362;9.206;2022-11-15T00:13:08;5.75;;;4.50;;
7969;SDS011;4030;52.362;9.206;2022-11-15T00:15:37;5.18;;;4.57;;
7969;SDS011;4030;52.362;9.206;2022-11-15T00:18:04;5.10;;;4.60;;
7969;SDS011;4030;52.362;9.206;2022-11-15T00:20:35;4.57;;;4.18;;
7969;SDS011;4030;52.362;9.206;2022-11-15T00:23:03;4.72;;;4.20;;
7969;SDS011;4030;52.362;9.206;2022-11-15T00:25:29;4.82;;;4.32;;
7969;SDS011;4030;52.362;9.206;2022-11-15T00:27:56;4.57;;;3.97;;
7969;SDS011;4030;52.362;9.206;2022-11-15T00:30:23;4.00;;;3.60;;
7969;SDS011;4030;52.362;9.206;2022-11-15T00:32:49;4.45;;;4.05;;
7969;SDS011;4030;52.362;9.206;2022-11-15T00:35:15;4.70;;;3.70;;
7969;SDS011;4030;52.362;9.206;2022-11-15T00:37:41;4.43;;;4.03;;
7969;SDS011;4030;52.362;9.206;2022-11-15T00:40:07;4.50;;;3.95;;
7969;SDS011;4030;52.362;9.206;2022-11-15T00:42:34;4.90;;;3.63;;
7969;SDS011;4030;52.362;9.206;2022-11-15T00:45:00;4.00;;;3.60;;
7969;SDS011;4030;52.362;9.206;2022-11-15T00:47:26;3.83;;;3.30;;
7969;SDS011;4030;52.362;9.206;2022-11-15T00:49:52;4.28;;;3.50;;
7969;SDS011;4030;52.362;9.206;2022-11-15T00:52:18;3.65;;;3.05;;
7969;SDS011;4030;52.362;9.206;2022-11-15T00:54:44;4.07;;;3.63;;
7969;SDS011;4030;52.362;9.206;2022-11-15T00:57:10;4.55;;;3.38;;
7969;SDS011;4030;52.362;9.206;2022-11-15T00:59:36;3.77;;;3.37;;
7969;SDS011;4030;52.362;9.206;2022-11-15T01:02:02;4.68;;;3.28;;
7969;SDS011;4030;52.362;9.206;2022-11-15T01:04:28;3.65;;;3.25;;
7969;SDS011;4030;52.362;9.206;2022-11-15T01:06:54;4.05;;;3.50;;
7969;SDS011;4030;52.362;9.206;2022-11-15T01:09:20;5.15;;;3.33;;
7969;SDS011;4030;52.362;9.206;2022-11-15T01:11:46;4.30;;;3.53;;
7969;SDS011;4030;52.362;9.206;2022-11-15T01:14:12;3.80;;;3.17;;
7969;SDS011;4030;52.362;9.206;2022-11-15T01:16:38;4.57;;;3.28;;
7969;SDS011;4030;52.362;9.206;2022-11-15T01:19:04;4.00;;;3.28;;
7969;SDS011;4030;52.362;9.206;2022-11-15T01:21:30;3.95;;;3.30;;
7969;SDS011;4030;52.362;9.206;2022-11-15T01:23:56;3.25;;;2.95;;
7969;SDS011;4030;52.362;9.206;2022-11-15T01:26:23;3.95;;;3.10;;
7969;SDS011;4030;52.362;9.206;2022-11-15T01:28:50;3.75;;;3.17;;
7969;SDS011;4030;52.362;9.206;2022-11-15T01:31:17;3.78;;;3.47;;
7969;SDS011;4030;52.362;9.206;2022-11-15T01:33:44;4.05;;;3.28;;
7969;SDS011;4030;52.362;9.206;2022-11-15T01:36:13;5.32;;;3.42;;
7969;SDS011;4030;52.362;9.206;2022-11-15T01:38:43;3.40;;;3.10;;
7969;SDS011;4030;52.362;9.206;2022-11-15T01:41:18;3.65;;;3.35;;
7969;SDS011;4030;52.362;9.206;2022-11-15T01:43:49;3.85;;;3.45;;
7969;SDS011;4030;52.362;9.206;2022-11-15T01:46:23;4.82;;;3.40;;
7969;SDS011;4030;52.362;9.206;2022-11-15T01:49:00;3.95;;;3.28;;
7969;SDS011;4030;52.362;9.206;2022-11-15T01:51:31;4.17;;;3.30;;
7969;SDS011;4030;52.362;9.206;2022-11-15T01:53:59;4.03;;;3.50;;
7969;SDS011;4030;52.362;9.206;2022-11-15T01:56:32;3.80;;;3.00;;
7969;SDS011;4030;52.362;9.206;2022-11-15T01:59:02;3.42;;;3.00;;
7969;SDS011;4030;52.362;9.206;2022-11-15T02:01:30;3.60;;;3.13;;
7969;SDS011;4030;52.362;9.206;2022-11-15T02:03:59;3.80;;;3.20;;
7969;SDS011;4030;52.362;9.206;2022-11-15T02:06:37;3.50;;;3.10;;
7969;SDS011;4030;52.362;9.206;2022-11-15T02:09:04;3.67;;;3.20;;
7969;SDS011;4030;52.362;9.206;2022-11-15T02:11:30;4.00;;;3.30;;
7969;SDS011;4030;52.362;9.206;2022-11-15T02:13:56;4.07;;;3.17;;
7969;SDS011;4030;52.362;9.206;2022-11-15T02:34:04;4.72;;;3.35;;
7969;SDS011;4030;52.362;9.206;2022-11-15T02:36:59;4.65;;;3.33;;
7969;SDS011;4030;52.362;9.206;2022-11-15T02:40:00;5.22;;;3.30;;
7969;SDS011;4030;52.362;9.206;2022-11-15T02:43:00;3.65;;;3.03;;
7969;SDS011;4030;52.362;9.206;2022-11-15T02:45:53;3.85;;;3.42;;
7969;SDS011;4030;52.362;9.206;2022-11-15T02:48:31;5.00;;;3.63;;
7969;SDS011;4030;52.362;9.206;2022-11-15T02:50:58;4.03;;;3.55;;
7969;SDS011;4030;52.362;9.206;2022-11-15T02:53:25;3.67;;;3.35;;
7969;SDS011;4030;52.362;9.206;2022-11-15T02:55:52;4.43;;;3.25;;
7969;SDS011;4030;52.362;9.206;2022-11-15T03:09:13;4.00;;;3.60;;
7969;SDS011;4030;52.362;9.206;2022-11-15T03:17:54;3.85;;;3.45;;
7969;SDS011;4030;52.362;9.206;2022-11-15T03:20:38;4.20;;;3.78;;
7969;SDS011;4030;52.362;9.206;2022-11-15T03:23:06;4.47;;;4.00;;
7969;SDS011;4030;52.362;9.206;2022-11-15T03:25:36;4.50;;;4.10;;
7969;SDS011;4030;52.362;9.206;2022-11-15T03:28:12;6.47;;;4.47;;
7969;SDS011;4030;52.362;9.206;2022-11-15T03:30:43;5.13;;;4.20;;
7969;SDS011;4030;52.362;9.206;2022-11-15T03:33:11;6.63;;;4.57;;
7969;SDS011;4030;52.362;9.206;2022-11-15T03:35:37;4.93;;;4.35;;
7969;SDS011;4030;52.362;9.206;2022-11-15T03:38:08;5.15;;;4.60;;
7969;SDS011;4030;52.362;9.206;2022-11-15T03:40:49;5.72;;;4.45;;
7969;SDS011;4030;52.362;9.206;2022-11-15T03:43:37;5.95;;;4.97;;
7969;SDS011;4030;52.362;9.206;2022-11-15T03:46:34;5.35;;;4.85;;
7969;SDS011;4030;52.362;9.206;2022-11-15T03:49:17;5.72;;;4.70;;
7969;SDS011;4030;52.362;9.206;2022-11-15T03:51:52;6.15;;;5.35;;
7969;SDS011;4030;52.362;9.206;2022-11-15T03:54:21;5.63;;;5.00;;
7969;SDS011;4030;52.362;9.206;2022-11-15T03:56:47;5.63;;;4.97;;
7969;SDS011;4030;52.362;9.206;2022-11-15T03:59:12;5.82;;;4.65;;
7969;SDS011;4030;52.362;9.206;2022-11-15T04:01:39;5.80;;;4.93;;
7969;SDS011;4030;52.362;9.206;2022-11-15T04:04:04;5.53;;;4.82;;
7969;SDS011;4030;52.362;9.206;2022-11-15T04:06:30;5.60;;;4.97;;
7969;SDS011;4030;52.362;9.206;2022-11-15T04:08:56;6.05;;;5.30;;
7969;SDS011;4030;52.362;9.206;2022-11-15T04:11:22;5.78;;;5.15;;
7969;SDS011;4030;52.362;9.206;2022-11-15T04:13:48;5.82;;;4.70;;
7969;SDS011;4030;52.362;9.206;2022-11-15T04:16:13;5.57;;;4.85;;
7969;SDS011;4030;52.362;9.206;2022-11-15T04:18:39;5.78;;;5.15;;
7969;SDS011;4030;52.362;9.206;2022-11-15T04:21:05;6.90;;;4.72;;
7969;SDS011;4030;52.362;9.206;2022-11-15T04:23:51;5.47;;;4.82;;
7969;SDS011;4030;52.362;9.206;2022-11-15T04:26:32;7.13;;;4.82;;
7969;SDS011;4030;52.362;9.206;2022-11-15T04:28:58;5.97;;;4.95;;
7969;SDS011;4030;52.362;9.206;2022-11-15T04:31:42;5.45;;;4.40;;
7969;SDS011;4030;52.362;9.206;2022-11-15T04:34:07;5.82;;;4.57;;
7969;SDS011;4030;52.362;9.206;2022-11-15T04:36:33;7.47;;;4.97;;
7969;SDS011;4030;52.362;9.206;2022-11-15T04:39:38;5.28;;;4.40;;
7969;SDS011;4030;52.362;9.206;2022-11-15T04:42:05;5.78;;;4.70;;
7969;SDS011;4030;52.362;9.206;2022-11-15T04:44:31;4.80;;;4.40;;
7969;SDS011;4030;52.362;9.206;2022-11-15T04:46:57;6.15;;;4.80;;
7969;SDS011;4030;52.362;9.206;2022-11-15T04:49:22;5.07;;;4.57;;
7969;SDS011;4030;52.362;9.206;2022-11-15T04:51:48;5.72;;;4.55;;
7969;SDS011;4030;52.362;9.206;2022-11-15T04:54:14;5.22;;;4.25;;
7969;SDS011;4030;52.362;9.206;2022-11-15T04:56:40;4.85;;;4.20;;
7969;SDS011;4030;52.362;9.206;2022-11-15T04:59:06;4.72;;;4.28;;
7969;SDS011;4030;52.362;9.206;2022-11-15T05:01:32;4.88;;;4.25;;
7969;SDS011;4030;52.362;9.206;2022-11-15T05:03:58;4.43;;;4.03;;
7969;SDS011;4030;52.362;9.206;2022-11-15T05:06:43;5.63;;;4.22;;
7969;SDS011;4030;52.362;9.206;2022-11-15T05:09:08;4.97;;;4.47;;
7969;SDS011;4030;52.362;9.206;2022-11-15T05:11:34;4.70;;;4.07;;
7969;SDS011;4030;52.362;9.206;2022-11-15T05:14:00;6.35;;;4.35;;
7969;SDS011;4030;52.362;9.206;2022-11-15T05:16:26;4.57;;;4.10;;
7969;SDS011;4030;52.362;9.206;2022-11-15T05:18:53;5.03;;;4.30;;
7969;SDS011;4030;52.362;9.206;2022-11-15T05:21:19;5.38;;;3.92;;
7969;SDS011;4030;52.362;9.206;2022-11-15T05:23:45;6.00;;;4.40;;
7969;SDS011;4030;52.362;9.206;2022-11-15T05:26:12;5.63;;;4.30;;
7969;SDS011;4030;52.362;9.206;2022-11-15T05:28:40;5.60;;;4.25;;
7969;SDS011;4030;52.362;9.206;2022-11-15T05:31:12;4.97;;;3.85;;
7969;SDS011;4030;52.362;9.206;2022-11-15T05:33:40;4.13;;;3.72;;
7969;SDS011;4030;52.362;9.206;2022-11-15T05:36:12;4.22;;;3.83;;
7969;SDS011;4030;52.362;9.206;2022-11-15T05:38:50;4.05;;;3.60;;
7969;SDS011;4030;52.362;9.206;2022-11-15T05:41:20;4.05;;;3.65;;
7969;SDS011;4030;52.362;9.206;2022-11-15T05:43:55;5.05;;;4.05;;
7969;SDS011;4030;52.362;9.206;2022-11-15T05:46:21;4.20;;;3.80;;
7969;SDS011;4030;52.362;9.206;2022-11-15T05:48:48;4.78;;;3.92;;
7969;SDS011;4030;52.362;9.206;2022-11-15T05:51:16;4.60;;;4.00;;
7969;SDS011;4030;52.362;9.206;2022-11-15T05:53:44;4.85;;;3.78;;
7969;SDS011;4030;52.362;9.206;2022-11-15T05:56:11;5.28;;;4.20;;
7969;SDS011;4030;52.362;9.206;2022-11-15T05:58:37;4.03;;;3.60;;
7969;SDS011;4030;52.362;9.206;2022-11-15T06:01:03;4.05;;;3.65;;
7969;SDS011;4030;52.362;9.206;2022-11-15T06:03:29;4.40;;;3.63;;
7969;SDS011;4030;52.362;9.206;2022-11-15T06:05:56;3.67;;;3.38;;
7969;SDS011;4030;52.362;9.206;2022-11-15T06:08:22;4.32;;;3.63;;
7969;SDS011;4030;52.362;9.206;2022-11-15T06:10:48;4.57;;;3.65;;
7969;SDS011;4030;52.362;9.206;2022-11-15T06:13:14;4.03;;;3.60;;
7969;SDS011;4030;52.362;9.206;2022-11-15T06:15:40;4.40;;;3.70;;
7969;SDS011;4030;52.362;9.206;2022-11-15T06:18:06;4.05;;;3.65;;
7969;SDS011;4030;52.362;9.206;2022-11-15T06:20:32;4.22;;;3.70;;
7969;SDS011;4030;52.362;9.206;2022-11-15T06:22:58;4.20;;;3.80;;
7969;SDS011;4030;52.362;9.206;2022-11-15T06:25:26;5.35;;;3.55;;
7969;SDS011;4030;52.362;9.206;2022-11-15T06:27:56;4.47;;;3.47;;
7969;SDS011;4030;52.362;9.206;2022-11-15T06:30:24;4.72;;;3.88;;
7969;SDS011;4030;52.362;9.206;2022-11-15T06:32:51;3.40;;;3.10;;
7969;SDS011;4030;52.362;9.206;2022-11-15T06:35:23;3.72;;;3.17;;
7969;SDS011;4030;52.362;9.206;2022-11-15T06:37:49;3.75;;;3.35;;
7969;SDS011;4030;52.362;9.206;2022-11-15T06:40:16;4.65;;;3.50;;
7969;SDS011;4030;52.362;9.206;2022-11-15T06:42:41;3.35;;;3.05;;
7969;SDS011;4030;52.362;9.206;2022-11-15T06:45:07;3.58;;;3.05;;
7969;SDS011;4030;52.362;9.206;2022-11-15T06:47:33;3.97;;;2.97;;
7969;SDS011;4030;52.362;9.206;2022-11-15T06:49:59;3.28;;;2.97;;
7969;SDS011;4030;52.362;9.206;2022-11-15T06:52:25;3.28;;;2.97;;
7969;SDS011;4030;52.362;9.206;2022-11-15T06:54:51;3.40;;;3.10;;
7969;SDS011;4030;52.362;9.206;2022-11-15T06:57:17;3.60;;;3.30;;
7969;SDS011;4030;52.362;9.206;2022-11-15T06:59:43;4.65;;;2.97;;
7969;SDS011;4030;52.362;9.206;2022-11-15T07:02:13;3.90;;;3.10;;
7969;SDS011;4030;52.362;9.206;2022-11-15T07:04:38;3.63;;;2.85;;
7969;SDS011;4030;52.362;9.206;2022-11-15T07:07:04;3.45;;;2.85;;
7969;SDS011;4030;52.362;9.206;2022-11-15T07:09:30;3.28;;;2.97;;
7969;SDS011;4030;52.362;9.206;2022-11-15T07:11:56;3.67;;;3.08;;
7969;SDS011;4030;52.362;9.206;2022-11-15T07:14:21;3.63;;;3.28;;
7969;SDS011;4030;52.362;9.206;2022-11-15T07:16:47;3.30;;;2.83;;
7969;SDS011;4030;52.362;9.206;2022-11-15T07:19:13;3.78;;;3.35;;
7969;SDS011;4030;52.362;9.206;2022-11-15T07:21:39;3.95;;;3.30;;
7969;SDS011;4030;52.362;9.206;2022-11-15T07:24:05;3.47;;;3.15;;
7969;SDS011;4030;52.362;9.206;2022-11-15T07:26:32;3.70;;;3.30;;
7969;SDS011;4030;52.362;9.206;2022-11-15T07:28:58;3.58;;;3.25;;
7969;SDS011;4030;52.362;9.206;2022-11-15T07:31:24;4.93;;;3.35;;
7969;SDS011;4030;52.362;9.206;2022-11-15T07:33:50;3.40;;;3.10;;
7969;SDS011;4030;52.362;9.206;2022-11-15T07:36:16;3.30;;;3.00;;
7969;SDS011;4030;52.362;9.206;2022-11-15T07:38:42;3.55;;;3.25;;
7969;SDS011;4030;52.362;9.206;2022-11-15T07:41:08;3.67;;;3.38;;
7969;SDS011;4030;52.362;9.206;2022-11-15T07:43:34;4.50;;;3.40;;
7969;SDS011;4030;52.362;9.206;2022-11-15T07:46:06;3.38;;;2.97;;
7969;SDS011;4030;52.362;9.206;2022-11-15T07:48:34;4.00;;;3.13;;
7969;SDS011;4030;52.362;9.206;2022-11-15T07:51:05;4.10;;;3.03;;
7969;SDS011;4030;52.362;9.206;2022-11-15T07:53:31;4.25;;;3.30;;
7969;SDS011;4030;52.362;9.206;2022-11-15T07:55:57;4.53;;;3.10;;
7969;SDS011;4030;52.362;9.206;2022-11-15T07:58:23;3.22;;;2.92;;
7969;SDS011;4030;52.362;9.206;2022-11-15T08:00:49;4.30;;;3.03;;
7969;SDS011;4030;52.362;9.206;2022-11-15T08:03:15;4.18;;;2.83;;
7969;SDS011;4030;52.362;9.206;2022-11-15T08:05:42;3.30;;;3.00;;
7969;SDS011;4030;52.362;9.206;2022-11-15T08:08:09;4.25;;;3.00;;
7969;SDS011;4030;52.362;9.206;2022-11-15T08:10:36;3.88;;;3.13;;
7969;SDS011;4030;52.362;9.206;2022-11-15T08:13:06;4.57;;;3.13;;
7969;SDS011;4030;52.362;9.206;2022-11-15T08:15:34;2.95;;;2.60;;
7969;SDS011;4030;52.362;9.206;2022-11-15T08:18:02;3.95;;;3.03;;
7969;SDS011;4030;52.362;9.206;2022-11-15T08:20:35;3.97;;;2.70;;
7969;SDS011;4030;52.362;9.206;2022-11-15T08:23:02;4.30;;;2.63;;
7969;SDS011;4030;52.362;9.206;2022-11-15T08:25:30;4.13;;;2.95;;
7969;SDS011;4030;52.362;9.206;2022-11-15T08:27:58;2.67;;;2.40;;
7969;SDS011;4030;52.362;9.206;2022-11-15T08:30:27;3.60;;;3.00;;
7969;SDS011;4030;52.362;9.206;2022-11-15T08:32:53;2.90;;;2.60;;
7969;SDS011;4030;52.362;9.206;2022-11-15T08:35:22;3.35;;;2.40;;
7969;SDS011;4030;52.362;9.206;2022-11-15T08:37:48;3.40;;;2.40;;
7969;SDS011;4030;52.362;9.206;2022-11-15T08:40:15;3.33;;;2.70;;
7969;SDS011;4030;52.362;9.206;2022-11-15T08:42:41;3.28;;;2.70;;
7969;SDS011;4030;52.362;9.206;2022-11-15T08:45:07;2.85;;;2.40;;
7969;SDS011;4030;52.362;9.206;2022-11-15T08:47:34;4.35;;;2.63;;
7969;SDS011;4030;52.362;9.206;2022-11-15T08:50:00;2.45;;;2.25;;
7969;SDS011;4030;52.362;9.206;2022-11-15T08:52:26;2.50;;;2.20;;
7969;SDS011;4030;52.362;9.206;2022-11-15T08:54:52;3.03;;;2.58;;
7969;SDS011;4030;52.362;9.206;2022-11-15T08:57:18;3.22;;;2.20;;
7969;SDS011;4030;52.362;9.206;2022-11-15T08:59:44;2.88;;;2.15;;
7969;SDS011;4030;52.362;9.206;2022-11-15T09:02:11;2.70;;;2.20;;
7969;SDS011;4030;52.362;9.206;2022-11-15T09:04:40;3.22;;;2.50;;
7969;SDS011;4030;52.362;9.206;2022-11-15T09:07:07;2.55;;;2.30;;
7969;SDS011;4030;52.362;9.206;2022-11-15T09:09:35;3.47;;;2.40;;
7969;SDS011;4030;52.362;9.206;2022-11-15T09:12:01;2.53;;;2.20;;
7969;SDS011;4030;52.362;9.206;2022-11-15T09:14:27;2.90;;;2.15;;
7969;SDS011;4030;52.362;9.206;2022-11-15T09:16:53;3.20;;;2.45;;
7969;SDS011;4030;52.362;9.206;2022-11-15T09:19:19;2.38;;;2.17;;
7969;SDS011;4030;52.362;9.206;2022-11-15T09:21:44;2.35;;;2.15;;
7969;SDS011;4030;52.362;9.206;2022-11-15T09:24:10;3.47;;;2.20;;
7969;SDS011;4030;52.362;9.206;2022-11-15T09:26:36;2.17;;;1.92;;
7969;SDS011;4030;52.362;9.206;2022-11-15T09:29:03;2.85;;;2.05;;
7969;SDS011;4030;52.362;9.206;2022-11-15T09:31:29;2.63;;;2.13;;
7969;SDS011;4030;52.362;9.206;2022-11-15T09:33:55;2.75;;;2.03;;
7969;SDS011;4030;52.362;9.206;2022-11-15T09:36:21;2.45;;;1.80;;
7969;SDS011;4030;52.362;9.206;2022-11-15T09:38:47;2.90;;;1.83;;
7969;SDS011;4030;52.362;9.206;2022-11-15T09:43:43;2.10;;;1.75;;
7969;SDS011;4030;52.362;9.206;2022-11-15T09:49:33;3.95;;;1.75;;
7969;SDS011;4030;52.362;9.206;2022-11-15T09:51:59;2.13;;;1.85;;
7969;SDS011;4030;52.362;9.206;2022-11-15T09:54:27;3.42;;;1.85;;
7969;SDS011;4030;52.362;9.206;2022-11-15T09:59:54;1.58;;;1.40;;
7969;SDS011;4030;52.362;9.206;2022-11-15T10:03:16;1.80;;;1.50;;
7969;SDS011;4030;52.362;9.206;2022-11-15T10:05:54;2.35;;;1.55;;
7969;SDS011;4030;52.362;9.206;2022-11-15T10:09:27;1.80;;;1.50;;
7969;SDS011;4030;52.362;9.206;2022-11-15T10:11:27;1.52;;;1.40;;
7969;SDS011;4030;52.362;9.206;2022-11-15T10:14:02;1.98;;;1.40;;
7969;SDS011;4030;52.362;9.206;2022-11-15T10:22:16;1.60;;;1.40;;
7969;SDS011;4030;52.362;9.206;2022-11-15T10:25:31;1.65;;;1.13;;
7969;SDS011;4030;52.362;9.206;2022-11-15T10:28:40;1.42;;;1.20;;
7969;SDS011;4030;52.362;9.206;2022-11-15T10:30:55;2.10;;;1.30;;
7969;SDS011;4030;52.362;9.206;2022-11-15T10:46:38;1.65;;;1.10;;
7969;SDS011;4030;52.362;9.206;2022-11-15T10:49:19;1.33;;;1.10;;
7969;SDS011;4030;52.362;9.206;2022-11-15T10:52:00;1.10;;;0.95;;
7969;SDS011;4030;52.362;9.206;2022-11-15T10:57:13;1.33;;;1.10;;
7969;SDS011;4030;52.362;9.206;2022-11-15T10:59:46;2.15;;;1.02;;
7969;SDS011;4030;52.362;9.206;2022-11-15T11:02:28;1.17;;;1.00;;
7969;SDS011;4030;52.362;9.206;2022-11-15T11:05:06;1.20;;;1.10;;
7969;SDS011;4030;52.362;9.206;2022-11-15T11:10:30;1.35;;;1.10;;
7969;SDS011;4030;52.362;9.206;2022-11-15T11:13:10;1.10;;;0.88;;
7969;SDS011;4030;52.362;9.206;2022-11-15T11:15:55;1.33;;;0.90;;
7969;SDS011;4030;52.362;9.206;2022-11-15T11:18:33;2.20;;;1.08;;
7969;SDS011;4030;52.362;9.206;2022-11-15T11:21:29;0.93;;;0.80;;
7969;SDS011;4030;52.362;9.206;2022-11-15T11:24:15;1.65;;;1.08;;
7969;SDS011;4030;52.362;9.206;2022-11-15T11:29:30;2.05;;;0.90;;
7969;SDS011;4030;52.362;9.206;2022-11-15T11:40:30;1.33;;;0.95;;
7969;SDS011;4030;52.362;9.206;2022-11-15T11:46:28;1.25;;;0.90;;
7969;SDS011;4030;52.362;9.206;2022-11-15T11:49:10;1.08;;;0.90;;
7969;SDS011;4030;52.362;9.206;2022-11-15T11:54:48;1.35;;;0.93;;
7969;SDS011;4030;52.362;9.206;2022-11-15T11:57:47;1.00;;;0.90;;
7969;SDS011;4030;52.362;9.206;2022-11-15T12:00:40;0.82;;;0.80;;
7969;SDS011;4030;52.362;9.206;2022-11-15T12:03:20;1.13;;;1.00;;
7969;SDS011;4030;52.362;9.206;2022-11-15T12:05:55;1.13;;;0.82;;
7969;SDS011;4030;52.362;9.206;2022-11-15T12:11:15;1.20;;;1.00;;
7969;SDS011;4030;52.362;9.206;2022-11-15T12:13:49;1.25;;;0.95;;
7969;SDS011;4030;52.362;9.206;2022-11-15T12:16:26;1.15;;;0.90;;
7969;SDS011;4030;52.362;9.206;2022-11-15T12:18:59;2.17;;;1.00;;
7969;SDS011;4030;52.362;9.206;2022-11-15T12:27:02;1.48;;;1.00;;
7969;SDS011;4030;52.362;9.206;2022-11-15T12:32:14;1.95;;;1.25;;
7969;SDS011;4030;52.362;9.206;2022-11-15T12:34:50;1.40;;;1.10;;
7969;SDS011;4030;52.362;9.206;2022-11-15T12:42:58;1.48;;;1.10;;
7969;SDS011;4030;52.362;9.206;2022-11-15T12:45:27;2.17;;;1.38;;
7969;SDS011;4030;52.362;9.206;2022-11-15T12:58:48;1.33;;;1.00;;
7969;SDS011;4030;52.362;9.206;2022-11-15T13:06:47;1.85;;;1.20;;
7969;SDS011;4030;52.362;9.206;2022-11-15T13:12:08;1.10;;;0.98;;
7969;SDS011;4030;52.362;9.206;2022-11-15T13:17:39;1.40;;;1.20;;
7969;SDS011;4030;52.362;9.206;2022-11-15T13:20:24;1.20;;;1.10;;
7969;SDS011;4030;52.362;9.206;2022-11-15T13:23:00;1.33;;;1.00;;
7969;SDS011;4030;52.362;9.206;2022-11-15T13:30:56;1.35;;;1.20;;
7969;SDS011;4030;52.362;9.206;2022-11-15T13:33:28;2.55;;;1.23;;
7969;SDS011;4030;52.362;9.206;2022-11-15T13:36:05;1.17;;;1.08;;
7969;SDS011;4030;52.362;9.206;2022-11-15T13:39:05;1.00;;;0.90;;
7969;SDS011;4030;52.362;9.206;2022-11-15T13:41:47;1.20;;;1.10;;
7969;SDS011;4030;52.362;9.206;2022-11-15T13:44:19;1.30;;;1.10;;
7969;SDS011;4030;52.362;9.206;2022-11-15T13:46:48;1.30;;;1.20;;
7969;SDS011;4030;52.362;9.206;2022-11-15T13:49:14;0.90;;;0.90;;
7969;SDS011;4030;52.362;9.206;2022-11-15T13:57:08;1.48;;;1.15;;
7969;SDS011;4030;52.362;9.206;2022-11-15T13:59:51;1.58;;;1.30;;
7969;SDS011;4030;52.362;9.206;2022-11-15T14:02:26;1.70;;;1.10;;
7969;SDS011;4030;52.362;9.206;2022-11-15T14:04:58;1.25;;;1.15;;
7969;SDS011;4030;52.362;9.206;2022-11-15T14:07:30;1.58;;;1.15;;
7969;SDS011;4030;52.362;9.206;2022-11-15T14:09:55;1.83;;;1.20;;
7969;SDS011;4030;52.362;9.206;2022-11-15T14:17:59;2.28;;;1.30;;
7969;SDS011;4030;52.362;9.206;2022-11-15T14:22:51;1.48;;;1.10;;
7969;SDS011;4030;52.362;9.206;2022-11-15T14:25:22;4.15;;;1.17;;
7969;SDS011;4030;52.362;9.206;2022-11-15T14:30:50;1.17;;;1.08;;
7969;SDS011;4030;52.362;9.206;2022-11-15T14:33:28;2.08;;;1.45;;
7969;SDS011;4030;52.362;9.206;2022-11-15T14:36:05;1.42;;;1.25;;
7969;SDS011;4030;52.362;9.206;2022-11-15T14:38:40;1.20;;;1.10;;
7969;SDS011;4030;52.362;9.206;2022-11-15T14:43:42;1.70;;;1.40;;
7969;SDS011;4030;52.362;9.206;2022-11-15T14:46:08;1.80;;;1.30;;
7969;SDS011;4030;52.362;9.206;2022-11-15T14:48:34;1.83;;;1.50;;
7969;SDS011;4030;52.362;9.206;2022-11-15T14:51:01;2.08;;;1.50;;
7969;SDS011;4030;52.362;9.206;2022-11-15T14:53:27;2.08;;;1.80;;
7969;SDS011;4030;52.362;9.206;2022-11-15T14:55:53;2.50;;;1.80;;
7969;SDS011;4030;52.362;9.206;2022-11-15T14:58:19;3.22;;;2.15;;
7969;SDS011;4030;52.362;9.206;2022-11-15T15:00:45;2.30;;;2.10;;
7969;SDS011;4030;52.362;9.206;2022-11-15T15:03:11;2.63;;;2.17;;
7969;SDS011;4030;52.362;9.206;2022-11-15T15:05:39;2.63;;;2.38;;
7969;SDS011;4030;52.362;9.206;2022-11-15T15:08:07;3.05;;;2.58;;
7969;SDS011;4030;52.362;9.206;2022-11-15T15:10:35;4.28;;;2.80;;
7969;SDS011;4030;52.362;9.206;2022-11-15T15:13:04;3.30;;;2.75;;
7969;SDS011;4030;52.362;9.206;2022-11-15T15:15:32;3.08;;;2.65;;
7969;SDS011;4030;52.362;9.206;2022-11-15T15:18:01;3.30;;;3.00;;
7969;SDS011;4030;52.362;9.206;2022-11-15T15:20:29;3.30;;;3.00;;
7969;SDS011;4030;52.362;9.206;2022-11-15T15:22:56;3.80;;;2.80;;
7969;SDS011;4030;52.362;9.206;2022-11-15T15:25:29;2.80;;;2.50;;
7969;SDS011;4030;52.362;9.206;2022-11-15T15:27:57;3.22;;;2.92;;
7969;SDS011;4030;52.362;9.206;2022-11-15T15:30:26;2.70;;;2.50;;
7969;SDS011;4030;52.362;9.206;2022-11-15T15:32:54;2.72;;;2.53;;
7969;SDS011;4030;52.362;9.206;2022-11-15T15:35:20;2.95;;;2.50;;
7969;SDS011;4030;52.362;9.206;2022-11-15T15:37:47;3.03;;;2.70;;
7969;SDS011;4030;52.362;9.206;2022-11-15T15:40:18;3.05;;;2.50;;
7969;SDS011;4030;52.362;9.206;2022-11-15T15:42:47;3.03;;;2.45;;
7969;SDS011;4030;52.362;9.206;2022-11-15T15:45:13;2.50;;;2.13;;
7969;SDS011;4030;52.362;9.206;2022-11-15T15:47:41;4.03;;;2.35;;
7969;SDS011;4030;52.362;9.206;2022-11-15T15:50:14;2.20;;;2.00;;
7969;SDS011;4030;52.362;9.206;2022-11-15T15:52:46;3.10;;;2.25;;
7969;SDS011;4030;52.362;9.206;2022-11-15T15:55:13;2.83;;;2.17;;
7969;SDS011;4030;52.362;9.206;2022-11-15T15:57:40;4.07;;;2.22;;
7969;SDS011;4030;52.362;9.206;2022-11-15T16:00:05;3.15;;;2.30;;
7969;SDS011;4030;52.362;9.206;2022-11-15T16:02:32;3.00;;;2.40;;
7969;SDS011;4030;52.362;9.206;2022-11-15T16:04:58;3.00;;;2.10;;
7969;SDS011;4030;52.362;9.206;2022-11-15T16:07:24;2.20;;;2.00;;
7969;SDS011;4030;52.362;9.206;2022-11-15T16:09:53;2.30;;;2.10;;
7969;SDS011;4030;52.362;9.206;2022-11-15T16:12:34;2.90;;;2.30;;
7969;SDS011;4030;52.362;9.206;2022-11-15T16:15:00;2.42;;;2.05;;
7969;SDS011;4030;52.362;9.206;2022-11-15T16:17:28;3.20;;;1.83;;
7969;SDS011;4030;52.362;9.206;2022-11-15T16:19:59;2.95;;;2.05;;
7969;SDS011;4030;52.362;9.206;2022-11-15T16:22:25;3.00;;;2.10;;
7969;SDS011;4030;52.362;9.206;2022-11-15T16:24:51;2.58;;;2.03;;
7969;SDS011;4030;52.362;9.206;2022-11-15T16:27:18;2.50;;;2.30;;
7969;SDS011;4030;52.362;9.206;2022-11-15T16:29:45;2.53;;;2.20;;
7969;SDS011;4030;52.362;9.206;2022-11-15T16:32:12;2.80;;;2.40;;
7969;SDS011;4030;52.362;9.206;2022-11-15T16:34:38;2.58;;;2.20;;
7969;SDS011;4030;52.362;9.206;2022-11-15T16:37:04;3.40;;;1.90;;
7969;SDS011;4030;52.362;9.206;2022-11-15T16:39:33;2.85;;;2.20;;
7969;SDS011;4030;52.362;9.206;2022-11-15T16:41:59;3.08;;;2.10;;
7969;SDS011;4030;52.362;9.206;2022-11-15T16:44:25;2.67;;;2.00;;
7969;SDS011;4030;52.362;9.206;2022-11-15T16:46:51;3.15;;;2.15;;
7969;SDS011;4030;52.362;9.206;2022-11-15T16:49:20;3.33;;;2.10;;
7969;SDS011;4030;52.362;9.206;2022-11-15T16:51:47;2.20;;;2.00;;
7969;SDS011;4030;52.362;9.206;2022-11-15T16:54:14;2.47;;;2.08;;
7969;SDS011;4030;52.362;9.206;2022-11-15T16:56:40;2.30;;;2.10;;
7969;SDS011;4030;52.362;9.206;2022-11-15T16:59:08;2.70;;;2.08;;
7969;SDS011;4030;52.362;9.206;2022-11-15T17:01:41;2.58;;;2.03;;
7969;SDS011;4030;52.362;9.206;2022-11-15T17:04:14;3.80;;;2.08;;
7969;SDS011;4030;52.362;9.206;2022-11-15T17:06:42;2.90;;;2.10;;
7969;SDS011;4030;52.362;9.206;2022-11-15T17:09:14;2.60;;;2.22;;
7969;SDS011;4030;52.362;9.206;2022-11-15T17:11:43;3.47;;;2.70;;
7969;SDS011;4030;52.362;9.206;2022-11-15T17:14:09;4.82;;;2.35;;
7969;SDS011;4030;52.362;9.206;2022-11-15T17:16:36;2.97;;;2.15;;
7969;SDS011;4030;52.362;9.206;2022-11-15T17:19:06;2.47;;;2.28;;
7969;SDS011;4030;52.362;9.206;2022-11-15T17:21:39;2.65;;;2.42;;
7969;SDS011;4030;52.362;9.206;2022-11-15T17:24:06;2.72;;;2.33;;
7969;SDS011;4030;52.362;9.206;2022-11-15T17:26:32;2.75;;;2.30;;
7969;SDS011;4030;52.362;9.206;2022-11-15T17:28:57;3.22;;;2.20;;
7969;SDS011;4030;52.362;9.206;2022-11-15T17:31:25;2.78;;;2.40;;
7969;SDS011;4030;52.362;9.206;2022-11-15T17:33:51;2.75;;;2.47;;
7969;SDS011;4030;52.362;9.206;2022-11-15T17:36:17;2.92;;;2.45;;
7969;SDS011;4030;52.362;9.206;2022-11-15T17:38:43;2.97;;;2.30;;
7969;SDS011;4030;52.362;9.206;2022-11-15T17:41:14;2.92;;;2.30;;
7969;SDS011;4030;52.362;9.206;2022-11-15T17:43:41;2.65;;;2.30;;
7969;SDS011;4030;52.362;9.206;2022-11-15T17:46:08;2.88;;;2.20;;
7969;SDS011;4030;52.362;9.206;2022-11-15T17:48:41;3.00;;;2.30;;
7969;SDS011;4030;52.362;9.206;2022-11-15T17:51:09;2.47;;;2.28;;
7969;SDS011;4030;52.362;9.206;2022-11-15T17:53:38;2.50;;;2.30;;
7969;SDS011;4030;52.362;9.206;2022-11-15T17:56:07;3.50;;;2.40;;
7969;SDS011;4030;52.362;9.206;2022-11-15T17:58:40;2.60;;;2.28;;
7969;SDS011;4030;52.362;9.206;2022-11-15T18:01:07;2.75;;;2.05;;